Time;durP1;ratioP1;P1;durP2;ratioP2;P2;SDS_P1;SDS_P2;PMS_P1;PMS_P2;Temp;Humidity;BMP_temperature;BMP_pressure;BME280_temperature;BME280_humidity;BME280_pressure;Samples;Min_cycle;Max_cycle;Signal;HPM_P1;HPM_P2
2021/08/20 00:00:31;;;;;;;5.00;3.63;;;;;;;;;;4788090;29;20098;-73
2021/08/20 00:02:56;;;;;;;4.70;3.97;;;;;;;;;;4804347;29;20031;-73
2021/08/20 00:05:22;;;;;;;5.35;3.00;;;;;;;;;;4804049;29;20371;-73
2021/08/20 00:07:47;;;;;;;7.80;3.40;;;;;;;;;;4799838;29;20495;-73
2021/08/20 00:10:13;;;;;;;6.93;3.65;;;;;;;;;;4788603;29;20402;-74
2021/08/20 00:12:39;;;;;;;7.45;3.63;;;;;;;;;;4804093;29;20057;-74
2021/08/20 00:15:05;;;;;;;7.57;4.13;;;;;;;;;;4804166;29;20026;-73
2021/08/20 00:17:31;;;;;;;5.70;3.70;;;;;;;;;;4787695;29;20680;-73
2021/08/20 00:19:57;;;;;;;5.28;3.25;;;;;;;;;;4787965;29;20122;-74
2021/08/20 00:22:23;;;;;;;5.18;3.63;;;;;;;;;;4804202;29;20384;-74
2021/08/20 00:24:49;;;;;;;6.53;3.83;;;;;;;;;;4804242;29;20080;-73
2021/08/20 00:27:15;;;;;;;10.05;3.40;;;;;;;;;;4803999;29;20031;-73
2021/08/20 00:29:40;;;;;;;4.32;3.20;;;;;;;;;;4804170;29;20057;-73
2021/08/20 00:32:06;;;;;;;8.80;3.80;;;;;;;;;;4802693;29;20027;-73
2021/08/20 00:34:32;;;;;;;15.00;4.05;;;;;;;;;;4804068;29;20105;-74
2021/08/20 00:36:57;;;;;;;4.47;3.15;;;;;;;;;;4787625;29;20117;-73
2021/08/20 00:39:23;;;;;;;5.68;3.53;;;;;;;;;;4803942;29;20035;-73
2021/08/20 00:41:49;;;;;;;5.43;3.83;;;;;;;;;;4784570;30;20087;-75
2021/08/20 00:44:15;;;;;;;5.15;3.42;;;;;;;;;;4785729;29;20574;-73
2021/08/20 00:46:43;;;;;;;5.53;3.58;;;;;;;;;;4785939;29;20062;-75
2021/08/20 00:49:09;;;;;;;5.38;3.97;;;;;;;;;;4799592;29;20110;-70
2021/08/20 00:51:37;;;;;;;6.95;3.10;;;;;;;;;;4784371;29;20027;-71
2021/08/20 00:54:08;;;;;;;4.50;3.13;;;;;;;;;;4784713;29;20463;-76
2021/08/20 00:56:33;;;;;;;4.43;3.33;;;;;;;;;;4785464;29;20430;-76
2021/08/20 00:59:00;;;;;;;5.82;3.72;;;;;;;;;;4784238;30;20031;-76
2021/08/20 01:01:26;;;;;;;6.70;3.15;;;;;;;;;;4784094;30;20058;-73
2021/08/20 01:03:52;;;;;;;4.15;3.22;;;;;;;;;;4785587;29;20140;-76
2021/08/20 01:06:17;;;;;;;7.35;3.75;;;;;;;;;;4785701;29;20078;-76
2021/08/20 01:08:42;;;;;;;5.22;3.30;;;;;;;;;;4784457;30;20042;-76
2021/08/20 01:11:10;;;;;;;4.55;3.33;;;;;;;;;;4785433;29;20031;-75
2021/08/20 01:13:38;;;;;;;7.95;3.63;;;;;;;;;;4781230;30;20070;-75
2021/08/20 01:16:05;;;;;;;4.63;3.38;;;;;;;;;;4784128;30;20027;-75
2021/08/20 01:18:41;;;;;;;6.10;3.47;;;;;;;;;;4785093;29;20115;-75
2021/08/20 01:21:18;;;;;;;7.28;3.78;;;;;;;;;;4785196;29;20028;-72
2021/08/20 01:23:55;;;;;;;7.60;4.03;;;;;;;;;;4783866;30;20027;-73
2021/08/20 01:26:21;;;;;;;6.60;3.33;;;;;;;;;;4785293;29;20036;-73
2021/08/20 01:28:47;;;;;;;7.72;3.50;;;;;;;;;;4784533;29;20483;-74
2021/08/20 01:31:15;;;;;;;8.27;3.65;;;;;;;;;;4784893;29;20059;-73
2021/08/20 01:33:42;;;;;;;6.18;3.60;;;;;;;;;;4784987;29;20031;-73
2021/08/20 01:36:08;;;;;;;5.93;3.50;;;;;;;;;;4785202;29;20027;-73
2021/08/20 01:38:55;;;;;;;8.73;3.90;;;;;;;;;;4783679;30;20122;-74
2021/08/20 01:41:23;;;;;;;7.72;3.33;;;;;;;;;;4797982;29;20058;-74
2021/08/20 01:43:49;;;;;;;4.75;3.28;;;;;;;;;;4800502;29;20104;-74
2021/08/20 01:46:15;;;;;;;8.50;3.38;;;;;;;;;;4802592;29;20345;-74
2021/08/20 01:48:49;;;;;;;5.68;3.45;;;;;;;;;;4784719;29;20027;-74
2021/08/20 01:51:19;;;;;;;7.60;3.70;;;;;;;;;;4786520;29;20035;-75
2021/08/20 01:53:46;;;;;;;4.45;3.13;;;;;;;;;;4786441;29;20030;-75
2021/08/20 01:56:16;;;;;;;11.13;3.72;;;;;;;;;;4802727;29;20083;-76
2021/08/20 01:58:42;;;;;;;9.77;5.45;;;;;;;;;;4786401;29;20059;-75
2021/08/20 02:01:07;;;;;;;6.07;3.75;;;;;;;;;;4802998;29;20027;-75
2021/08/20 02:03:33;;;;;;;4.25;3.30;;;;;;;;;;4802520;29;20046;-76
2021/08/20 02:05:58;;;;;;;6.47;3.63;;;;;;;;;;4801024;29;20034;-76
2021/08/20 02:08:24;;;;;;;6.47;2.92;;;;;;;;;;4802616;29;20392;-75
2021/08/20 02:10:49;;;;;;;3.97;3.28;;;;;;;;;;4772683;29;20325;-76
2021/08/20 02:13:15;;;;;;;7.25;3.50;;;;;;;;;;4805908;29;20066;-76
2021/08/20 02:15:40;;;;;;;6.95;3.30;;;;;;;;;;4801700;29;20031;-78
2021/08/20 02:18:06;;;;;;;6.78;3.67;;;;;;;;;;4786320;29;20472;-74
2021/08/20 02:20:31;;;;;;;4.28;3.22;;;;;;;;;;4801051;29;20027;-76
2021/08/20 02:22:57;;;;;;;6.93;3.20;;;;;;;;;;4786293;29;20022;-72
2021/08/20 02:25:22;;;;;;;4.90;3.88;;;;;;;;;;4786024;29;20113;-72
2021/08/20 02:27:48;;;;;;;5.22;3.72;;;;;;;;;;4786186;29;20480;-72
2021/08/20 02:30:13;;;;;;;6.65;3.78;;;;;;;;;;4802444;29;20108;-72
2021/08/20 02:32:39;;;;;;;6.45;3.60;;;;;;;;;;4786127;29;20047;-72
2021/08/20 02:35:04;;;;;;;6.78;3.38;;;;;;;;;;4802659;29;20035;-70
2021/08/20 02:37:30;;;;;;;8.07;3.90;;;;;;;;;;4786082;29;20066;-71
2021/08/20 02:39:55;;;;;;;7.22;3.38;;;;;;;;;;4804632;29;20055;-73
2021/08/20 02:42:21;;;;;;;4.72;2.90;;;;;;;;;;4805959;29;20038;-73
2021/08/20 02:44:46;;;;;;;6.05;3.95;;;;;;;;;;4804902;29;20027;-72
2021/08/20 02:47:12;;;;;;;4.65;3.35;;;;;;;;;;4804079;29;20383;-72
2021/08/20 02:49:38;;;;;;;6.75;3.55;;;;;;;;;;4804356;29;20714;-71
2021/08/20 02:52:03;;;;;;;20.45;4.35;;;;;;;;;;4789461;29;20027;-72
2021/08/20 02:54:29;;;;;;;5.75;3.63;;;;;;;;;;4789346;29;20572;-76
2021/08/20 02:56:54;;;;;;;5.90;3.63;;;;;;;;;;4804400;29;20030;-75
2021/08/20 02:59:20;;;;;;;4.53;3.10;;;;;;;;;;4805329;29;20057;-74
2021/08/20 03:01:48;;;;;;;7.45;3.70;;;;;;;;;;4805469;29;20035;-74
2021/08/20 03:04:15;;;;;;;7.45;3.67;;;;;;;;;;4788363;29;20551;-75
2021/08/20 03:06:41;;;;;;;12.13;4.63;;;;;;;;;;4803064;29;20038;-75
2021/08/20 03:09:06;;;;;;;9.18;3.75;;;;;;;;;;4805508;29;20387;-76
2021/08/20 03:11:32;;;;;;;8.57;3.55;;;;;;;;;;4789002;29;20034;-76
2021/08/20 03:13:57;;;;;;;7.43;3.38;;;;;;;;;;4800557;29;20498;-76
2021/08/20 03:16:23;;;;;;;6.78;3.45;;;;;;;;;;4799047;29;20041;-75
2021/08/20 03:18:48;;;;;;;7.40;3.42;;;;;;;;;;4788153;29;20037;-74
2021/08/20 03:21:14;;;;;;;5.63;3.72;;;;;;;;;;4789092;29;20023;-74
2021/08/20 03:23:39;;;;;;;8.02;3.60;;;;;;;;;;4805322;29;20042;-74
2021/08/20 03:26:06;;;;;;;4.97;3.50;;;;;;;;;;4805348;29;20030;-72
2021/08/20 03:28:32;;;;;;;4.43;3.58;;;;;;;;;;4800890;29;20038;-71
2021/08/20 03:30:57;;;;;;;6.45;3.80;;;;;;;;;;4802699;29;20023;-71
2021/08/20 03:33:23;;;;;;;9.02;4.63;;;;;;;;;;4787526;29;20044;-71
2021/08/20 03:35:48;;;;;;;4.88;3.60;;;;;;;;;;4804297;29;20070;-73
2021/08/20 03:38:14;;;;;;;5.68;3.33;;;;;;;;;;4787731;29;20126;-74
2021/08/20 03:40:39;;;;;;;6.85;3.58;;;;;;;;;;4803898;29;20512;-73
2021/08/20 03:43:06;;;;;;;3.88;3.13;;;;;;;;;;4803731;29;20109;-74
2021/08/20 03:45:33;;;;;;;9.45;4.20;;;;;;;;;;4787294;29;20051;-72
2021/08/20 03:47:58;;;;;;;5.95;3.10;;;;;;;;;;4787300;29;20039;-74
2021/08/20 03:50:24;;;;;;;12.02;4.38;;;;;;;;;;4803232;29;20540;-74
2021/08/20 03:52:49;;;;;;;7.18;3.80;;;;;;;;;;4804322;29;20038;-74
2021/08/20 03:55:15;;;;;;;8.40;4.40;;;;;;;;;;4787173;29;20442;-71
2021/08/20 03:57:40;;;;;;;5.65;3.55;;;;;;;;;;4787432;29;20070;-72
2021/08/20 04:00:07;;;;;;;6.13;3.63;;;;;;;;;;4804703;29;20522;-71
2021/08/20 04:02:32;;;;;;;6.20;3.65;;;;;;;;;;4788107;29;20498;-71
2021/08/20 04:04:58;;;;;;;9.38;4.05;;;;;;;;;;4803915;29;20039;-70
2021/08/20 04:07:24;;;;;;;8.43;4.10;;;;;;;;;;4804502;29;20042;-70
2021/08/20 04:09:49;;;;;;;5.97;3.78;;;;;;;;;;4788625;29;20109;-71
2021/08/20 04:12:16;;;;;;;6.70;3.55;;;;;;;;;;4788262;29;20035;-77
2021/08/20 04:14:41;;;;;;;7.90;4.40;;;;;;;;;;4804627;29;20041;-75
2021/08/20 04:17:07;;;;;;;12.75;5.47;;;;;;;;;;4804699;29;20038;-75
2021/08/20 04:19:33;;;;;;;6.70;3.53;;;;;;;;;;4788056;29;20038;-75
2021/08/20 04:21:58;;;;;;;6.68;3.30;;;;;;;;;;4804615;29;20034;-74
2021/08/20 04:24:24;;;;;;;9.68;3.90;;;;;;;;;;4788293;29;20039;-76
2021/08/20 04:26:50;;;;;;;5.43;3.63;;;;;;;;;;4788310;29;20544;-77
2021/08/20 04:29:15;;;;;;;7.78;3.10;;;;;;;;;;4788085;29;20042;-74
2021/08/20 04:31:41;;;;;;;6.85;4.07;;;;;;;;;;4787705;29;20042;-74
2021/08/20 04:34:06;;;;;;;9.27;4.30;;;;;;;;;;4804092;29;20476;-73
2021/08/20 04:36:32;;;;;;;6.22;4.03;;;;;;;;;;4802347;29;20073;-73
2021/08/20 04:38:57;;;;;;;7.43;4.20;;;;;;;;;;4804522;29;20061;-73
2021/08/20 04:41:23;;;;;;;8.48;4.00;;;;;;;;;;4787734;29;20054;-73
2021/08/20 04:43:50;;;;;;;7.88;3.80;;;;;;;;;;4788177;29;20046;-74
2021/08/20 04:46:16;;;;;;;6.95;4.05;;;;;;;;;;4788491;29;20034;-73
2021/08/20 04:48:41;;;;;;;8.30;4.03;;;;;;;;;;4787724;29;20788;-73
2021/08/20 04:51:07;;;;;;;11.77;7.63;;;;;;;;;;4787373;29;20037;-73
2021/08/20 04:53:32;;;;;;;7.70;4.60;;;;;;;;;;4802099;29;20419;-73
2021/08/20 04:55:59;;;;;;;5.35;3.30;;;;;;;;;;4802742;29;20031;-73
2021/08/20 04:58:25;;;;;;;7.28;4.10;;;;;;;;;;4796057;29;20039;-73
2021/08/20 05:00:51;;;;;;;10.00;3.90;;;;;;;;;;4807715;29;20045;-73
2021/08/20 05:03:17;;;;;;;5.80;3.60;;;;;;;;;;4814888;29;20121;-73
2021/08/20 05:05:44;;;;;;;8.82;4.20;;;;;;;;;;4788372;29;20099;-73
2021/08/20 05:08:10;;;;;;;9.50;4.07;;;;;;;;;;4804516;29;20031;-73
2021/08/20 05:10:35;;;;;;;5.90;3.55;;;;;;;;;;4811497;29;20408;-74
2021/08/20 05:13:01;;;;;;;9.52;4.35;;;;;;;;;;4787289;29;20087;-73
2021/08/20 05:15:27;;;;;;;8.55;4.72;;;;;;;;;;4786794;29;20042;-73
2021/08/20 05:17:53;;;;;;;6.45;3.13;;;;;;;;;;4803634;29;20407;-73
2021/08/20 05:20:20;;;;;;;8.25;4.18;;;;;;;;;;4803294;29;20035;-73
2021/08/20 05:22:53;;;;;;;7.03;3.45;;;;;;;;;;4803235;29;20484;-74
2021/08/20 05:25:20;;;;;;;7.57;4.03;;;;;;;;;;4803614;29;20042;-72
2021/08/20 05:27:47;;;;;;;6.70;4.28;;;;;;;;;;4802802;29;20034;-72
2021/08/20 05:30:14;;;;;;;7.82;4.00;;;;;;;;;;4802536;29;20030;-71
2021/08/20 05:32:40;;;;;;;6.93;4.10;;;;;;;;;;4800813;29;20117;-72
2021/08/20 05:35:08;;;;;;;8.10;4.03;;;;;;;;;;4786406;29;20130;-72
2021/08/20 05:37:34;;;;;;;7.63;3.80;;;;;;;;;;4802786;29;20040;-71
2021/08/20 05:39:59;;;;;;;7.40;4.32;;;;;;;;;;4808326;29;20129;-71
2021/08/20 05:42:25;;;;;;;4.68;4.05;;;;;;;;;;4785877;29;20172;-72
2021/08/20 05:44:50;;;;;;;7.25;4.22;;;;;;;;;;4786020;29;20030;-70
2021/08/20 05:47:16;;;;;;;9.05;4.05;;;;;;;;;;4800060;29;20547;-70
2021/08/20 05:49:42;;;;;;;7.47;4.13;;;;;;;;;;4788256;29;20259;-71
2021/08/20 05:52:08;;;;;;;7.20;4.43;;;;;;;;;;4786490;29;20039;-72
2021/08/20 05:54:35;;;;;;;9.18;4.28;;;;;;;;;;4803048;29;20047;-71
2021/08/20 05:57:00;;;;;;;7.40;3.95;;;;;;;;;;4786802;29;20037;-71
2021/08/20 05:59:26;;;;;;;10.07;4.95;;;;;;;;;;4787046;29;20117;-71
2021/08/20 06:01:51;;;;;;;9.80;4.40;;;;;;;;;;4814010;29;20043;-71
2021/08/20 06:04:17;;;;;;;7.65;4.68;;;;;;;;;;4803230;29;20038;-72
2021/08/20 06:06:42;;;;;;;14.32;5.07;;;;;;;;;;4803451;29;20403;-71
2021/08/20 06:09:08;;;;;;;11.77;4.70;;;;;;;;;;4803270;29;20453;-70
2021/08/20 06:11:34;;;;;;;7.75;3.95;;;;;;;;;;4799686;29;20042;-72
2021/08/20 06:13:59;;;;;;;15.15;5.60;;;;;;;;;;4810112;29;20195;-71
2021/08/20 06:16:25;;;;;;;16.92;5.60;;;;;;;;;;4803729;29;20069;-73
2021/08/20 06:18:50;;;;;;;12.23;4.85;;;;;;;;;;4805912;29;20467;-70
2021/08/20 06:21:16;;;;;;;34.28;6.20;;;;;;;;;;4816446;29;20037;-72
2021/08/20 06:23:41;;;;;;;11.35;5.70;;;;;;;;;;4806112;29;20046;-72
2021/08/20 06:26:07;;;;;;;11.55;5.75;;;;;;;;;;4801717;29;20262;-72
2021/08/20 06:28:33;;;;;;;7.03;4.07;;;;;;;;;;4797718;29;20094;-73
2021/08/20 06:31:03;;;;;;;13.85;4.22;;;;;;;;;;4795795;29;20058;-73
2021/08/20 06:33:33;;;;;;;5.50;3.88;;;;;;;;;;4800806;29;20035;-71
2021/08/20 06:35:59;;;;;;;14.48;4.15;;;;;;;;;;4799638;29;20061;-71
2021/08/20 06:38:25;;;;;;;26.65;7.45;;;;;;;;;;4784453;29;20043;-71
2021/08/20 06:40:51;;;;;;;7.63;4.50;;;;;;;;;;4782350;29;20529;-70
2021/08/20 06:43:16;;;;;;;8.95;4.78;;;;;;;;;;4796084;29;20039;-72
2021/08/20 06:45:42;;;;;;;11.23;4.35;;;;;;;;;;4806823;29;20050;-72
2021/08/20 06:48:09;;;;;;;9.27;4.68;;;;;;;;;;4784771;29;20031;-74
2021/08/20 06:50:34;;;;;;;10.88;4.65;;;;;;;;;;4800287;29;20045;-73
2021/08/20 06:52:59;;;;;;;13.90;5.18;;;;;;;;;;4800214;29;20035;-72
2021/08/20 06:55:25;;;;;;;10.00;4.35;;;;;;;;;;4786778;29;20041;-73
2021/08/20 06:57:51;;;;;;;10.00;3.92;;;;;;;;;;4802028;29;20030;-71
2021/08/20 07:00:17;;;;;;;12.32;4.30;;;;;;;;;;4794422;29;20372;-72
2021/08/20 07:02:47;;;;;;;8.75;4.60;;;;;;;;;;4804933;29;20093;-71
2021/08/20 07:05:13;;;;;;;7.18;4.28;;;;;;;;;;4799554;29;20487;-72
2021/08/20 07:07:39;;;;;;;7.68;3.92;;;;;;;;;;4800470;29;20122;-72
2021/08/20 07:10:10;;;;;;;11.07;4.32;;;;;;;;;;4785128;29;20334;-71
2021/08/20 07:12:37;;;;;;;6.25;3.85;;;;;;;;;;4777917;29;20105;-72
2021/08/20 07:15:04;;;;;;;8.10;4.25;;;;;;;;;;4794281;29;20059;-73
2021/08/20 07:17:30;;;;;;;13.23;4.93;;;;;;;;;;4786217;29;20396;-74
2021/08/20 07:19:56;;;;;;;12.57;3.97;;;;;;;;;;4796918;29;20046;-72
2021/08/20 07:22:21;;;;;;;13.82;7.10;;;;;;;;;;4796330;29;20039;-75
2021/08/20 07:24:47;;;;;;;11.63;4.43;;;;;;;;;;4795422;29;20034;-73
2021/08/20 07:27:13;;;;;;;9.10;5.57;;;;;;;;;;4790425;29;20073;-72
2021/08/20 07:29:38;;;;;;;7.63;4.75;;;;;;;;;;4781402;29;20069;-72
2021/08/20 07:32:07;;;;;;;11.38;5.03;;;;;;;;;;4803512;29;20061;-74
2021/08/20 07:34:32;;;;;;;10.68;4.65;;;;;;;;;;4780829;29;20069;-73
2021/08/20 07:36:58;;;;;;;9.82;3.95;;;;;;;;;;4794936;29;20145;-74
2021/08/20 07:39:26;;;;;;;9.60;4.93;;;;;;;;;;4774567;29;20095;-74
2021/08/20 07:41:56;;;;;;;12.13;4.22;;;;;;;;;;4787581;29;20141;-72
2021/08/20 07:44:22;;;;;;;11.77;4.53;;;;;;;;;;4797603;29;20062;-72
2021/08/20 07:46:47;;;;;;;10.63;4.78;;;;;;;;;;4794154;29;20501;-74
2021/08/20 07:49:16;;;;;;;8.48;3.80;;;;;;;;;;4782746;29;20054;-72
2021/08/20 07:51:42;;;;;;;12.82;4.18;;;;;;;;;;4781623;29;20138;-75
2021/08/20 07:54:07;;;;;;;10.05;5.10;;;;;;;;;;4800322;29;20035;-71
2021/08/20 07:56:33;;;;;;;10.45;4.70;;;;;;;;;;4794239;29;20065;-72
2021/08/20 07:58:58;;;;;;;9.23;4.22;;;;;;;;;;4798777;29;20042;-73
2021/08/20 08:01:24;;;;;;;12.55;5.25;;;;;;;;;;4799155;29;20361;-74
2021/08/20 08:03:50;;;;;;;6.65;3.85;;;;;;;;;;4788890;29;20054;-73
2021/08/20 08:06:16;;;;;;;7.43;4.55;;;;;;;;;;4795079;29;20045;-72
2021/08/20 08:08:42;;;;;;;7.22;5.00;;;;;;;;;;4805022;29;20095;-73
2021/08/20 08:11:09;;;;;;;15.15;5.05;;;;;;;;;;4787834;29;20546;-73
2021/08/20 08:13:36;;;;;;;14.00;4.18;;;;;;;;;;4809295;29;20113;-73
2021/08/20 08:16:02;;;;;;;14.25;4.20;;;;;;;;;;4787630;29;20027;-74
2021/08/20 08:18:28;;;;;;;9.57;4.85;;;;;;;;;;4783006;29;20087;-72
2021/08/20 08:20:54;;;;;;;10.57;4.72;;;;;;;;;;4798919;29;20113;-74
2021/08/20 08:23:19;;;;;;;12.70;4.75;;;;;;;;;;4796932;29;20057;-71
2021/08/20 08:25:45;;;;;;;9.93;4.10;;;;;;;;;;4804881;29;20154;-73
2021/08/20 08:28:11;;;;;;;11.23;4.13;;;;;;;;;;4802430;29;20165;-73
2021/08/20 08:30:38;;;;;;;8.43;4.10;;;;;;;;;;4802378;29;20387;-72
2021/08/20 08:33:06;;;;;;;9.02;3.78;;;;;;;;;;4787864;29;20113;-72
2021/08/20 08:35:32;;;;;;;10.75;4.45;;;;;;;;;;4772868;29;20031;-71
2021/08/20 08:38:13;;;;;;;11.25;4.82;;;;;;;;;;4782645;29;20126;-74
2021/08/20 08:40:43;;;;;;;8.13;4.40;;;;;;;;;;4801704;29;20050;-73
2021/08/20 08:43:09;;;;;;;10.25;4.68;;;;;;;;;;4792907;29;20141;-73
2021/08/20 08:45:35;;;;;;;11.95;5.32;;;;;;;;;;4792351;29;20034;-73
2021/08/20 08:48:03;;;;;;;9.43;4.68;;;;;;;;;;4785092;29;20039;-74
2021/08/20 08:50:28;;;;;;;7.88;4.20;;;;;;;;;;4805026;29;20547;-75
2021/08/20 08:52:54;;;;;;;11.43;4.93;;;;;;;;;;4783332;29;20046;-73
2021/08/20 08:55:20;;;;;;;6.47;4.20;;;;;;;;;;4794174;29;21295;-73
2021/08/20 08:57:47;;;;;;;11.00;4.50;;;;;;;;;;4795393;29;20047;-73
2021/08/20 09:00:13;;;;;;;7.18;4.30;;;;;;;;;;4791812;29;20057;-74
2021/08/20 09:02:39;;;;;;;13.18;4.53;;;;;;;;;;4774225;29;20038;-73
2021/08/20 09:05:12;;;;;;;8.85;4.63;;;;;;;;;;4793678;29;20677;-74
2021/08/20 09:07:39;;;;;;;13.75;5.53;;;;;;;;;;4792944;29;20034;-72
2021/08/20 09:10:15;;;;;;;8.82;5.60;;;;;;;;;;4784936;29;20538;-73
2021/08/20 09:12:50;;;;;;;8.02;4.25;;;;;;;;;;4790097;29;20045;-73
2021/08/20 09:15:22;;;;;;;10.20;4.50;;;;;;;;;;4793053;29;20046;-73
2021/08/20 09:17:48;;;;;;;;;;;;;;;;;;4793809;29;20242;-71
2021/08/20 09:20:19;;;;;;;11.52;4.72;;;;;;;;;;4789926;29;19921;-74
2021/08/20 09:22:46;;;;;;;8.80;4.60;;;;;;;;;;4787567;29;20253;-73
2021/08/20 09:25:33;;;;;;;9.32;4.15;;;;;;;;;;4792557;29;20042;-72
2021/08/20 09:28:14;;;;;;;11.50;5.00;;;;;;;;;;4793095;29;20450;-75
2021/08/20 09:30:56;;;;;;;11.93;4.63;;;;;;;;;;4792594;29;20448;-73
2021/08/20 09:33:25;;;;;;;8.00;4.80;;;;;;;;;;4784090;29;20111;-72
2021/08/20 09:36:09;;;;;;;8.15;4.25;;;;;;;;;;4783323;29;20035;-74
2021/08/20 09:38:40;;;;;;;8.70;4.93;;;;;;;;;;4804432;29;20630;-74
2021/08/20 09:41:09;;;;;;;;;;;;;;;;;;4794260;29;20050;-75
2021/08/20 09:43:37;;;;;;;9.45;4.53;;;;;;;;;;4779244;29;19963;-73
2021/08/20 09:46:10;;;;;;;12.13;4.43;;;;;;;;;;4801460;29;20084;-73
2021/08/20 09:48:41;;;;;;;7.60;4.15;;;;;;;;;;4784142;29;20035;-73
2021/08/20 09:51:08;;;;;;;10.40;5.05;;;;;;;;;;4801084;29;20119;-74
2021/08/20 09:53:34;;;;;;;11.52;6.03;;;;;;;;;;4795184;29;20444;-71
2021/08/20 09:56:05;;;;;;;8.63;4.55;;;;;;;;;;4778638;29;20498;-74
2021/08/20 09:58:32;;;;;;;10.40;5.18;;;;;;;;;;4792115;29;20034;-73
2021/08/20 10:01:03;;;;;;;6.82;4.90;;;;;;;;;;4795734;29;20098;-72
2021/08/20 10:03:32;;;;;;;7.80;5.00;;;;;;;;;;4795391;29;20031;-73
2021/08/20 10:05:59;;;;;;;11.40;5.38;;;;;;;;;;4797492;29;20049;-73
2021/08/20 10:08:29;;;;;;;10.02;4.70;;;;;;;;;;4789026;29;20030;-73
2021/08/20 10:10:57;;;;;;;8.80;4.55;;;;;;;;;;4791358;29;20034;-71
2021/08/20 10:13:24;;;;;;;6.88;4.80;;;;;;;;;;4784628;29;20043;-72
2021/08/20 10:15:50;;;;;;;27.10;7.25;;;;;;;;;;4791552;29;20058;-72
2021/08/20 10:18:17;;;;;;;9.55;7.03;;;;;;;;;;4792541;29;20039;-72
2021/08/20 10:20:43;;;;;;;8.05;5.30;;;;;;;;;;4785894;29;20039;-74
2021/08/20 10:23:15;;;;;;;10.18;4.97;;;;;;;;;;4794899;29;20037;-75
2021/08/20 10:25:41;;;;;;;7.88;4.47;;;;;;;;;;4792758;29;20447;-72
2021/08/20 10:28:10;;;;;;;9.65;4.30;;;;;;;;;;4781935;29;20035;-73
2021/08/20 10:30:37;;;;;;;7.63;4.28;;;;;;;;;;4804084;29;20118;-74
2021/08/20 10:33:06;;;;;;;8.52;4.90;;;;;;;;;;4794913;29;20031;-73
2021/08/20 10:35:54;;;;;;;12.15;4.35;;;;;;;;;;4792357;29;20684;-73
2021/08/20 10:38:38;;;;;;;10.27;4.65;;;;;;;;;;4798520;29;20039;-73
2021/08/20 10:41:22;;;;;;;9.52;4.38;;;;;;;;;;4803300;29;20079;-74
2021/08/20 10:43:49;;;;;;;10.10;5.20;;;;;;;;;;4793694;29;20901;-71
2021/08/20 10:46:33;;;;;;;9.65;4.70;;;;;;;;;;4793029;29;20058;-72
2021/08/20 10:49:10;;;;;;;11.02;5.15;;;;;;;;;;4796436;29;20488;-75
2021/08/20 10:51:56;;;;;;;14.20;5.22;;;;;;;;;;4778376;29;20041;-74
2021/08/20 10:54:31;;;;;;;8.07;5.50;;;;;;;;;;4795557;29;20913;-73
2021/08/20 10:57:01;;;;;;;7.28;4.80;;;;;;;;;;4785430;29;20115;-73
2021/08/20 10:59:36;;;;;;;10.02;5.10;;;;;;;;;;4783006;29;20119;-72
2021/08/20 11:02:23;;;;;;;11.05;5.20;;;;;;;;;;4800114;29;20041;-73
2021/08/20 11:05:07;;;;;;;17.75;6.15;;;;;;;;;;4799651;29;20106;-71
2021/08/20 11:07:42;;;;;;;7.72;4.88;;;;;;;;;;4800810;29;20504;-72
2021/08/20 11:10:08;;;;;;;8.45;4.85;;;;;;;;;;4803129;29;20033;-73
2021/08/20 11:12:47;;;;;;;7.82;4.43;;;;;;;;;;4805748;29;20031;-74
2021/08/20 11:18:01;;;;;;;6.55;4.18;;;;;;;;;;4799210;29;20145;-73
2021/08/20 11:20:28;;;;;;;7.50;4.38;;;;;;;;;;4799240;29;20236;-72
2021/08/20 11:23:12;;;;;;;8.18;4.50;;;;;;;;;;4805355;29;20134;-73
2021/08/20 11:25:52;;;;;;;9.80;5.10;;;;;;;;;;4796797;29;20100;-73
2021/08/20 11:28:19;;;;;;;10.15;5.93;;;;;;;;;;4785688;29;20039;-75
2021/08/20 11:30:58;;;;;;;7.35;4.85;;;;;;;;;;4799622;29;20050;-74
2021/08/20 11:33:31;;;;;;;7.63;4.70;;;;;;;;;;4785003;29;20037;-73
2021/08/20 11:36:00;;;;;;;8.38;4.35;;;;;;;;;;4784903;29;20118;-71
2021/08/20 11:38:30;;;;;;;11.32;5.28;;;;;;;;;;4797313;29;20045;-73
2021/08/20 11:41:02;;;;;;;7.47;4.70;;;;;;;;;;4798346;29;20055;-72
2021/08/20 11:43:29;;;;;;;9.55;4.93;;;;;;;;;;4772050;29;20046;-72
2021/08/20 11:46:02;;;;;;;11.30;5.00;;;;;;;;;;4794644;29;20047;-71
2021/08/20 11:48:29;;;;;;;7.50;4.18;;;;;;;;;;4800985;29;20042;-73
2021/08/20 11:50:55;;;;;;;7.55;4.15;;;;;;;;;;4798116;29;20087;-73
2021/08/20 11:53:23;;;;;;;10.57;5.22;;;;;;;;;;4795203;29;20069;-72
2021/08/20 11:55:51;;;;;;;11.98;4.90;;;;;;;;;;4798061;29;20125;-73
2021/08/20 11:58:29;;;;;;;12.13;4.93;;;;;;;;;;4809523;29;20069;-70
2021/08/20 12:00:54;;;;;;;10.95;5.28;;;;;;;;;;4799556;29;20052;-71
2021/08/20 12:03:20;;;;;;;6.82;4.35;;;;;;;;;;4796869;29;20038;-73
2021/08/20 12:05:46;;;;;;;11.00;4.70;;;;;;;;;;4791281;29;20042;-73
2021/08/20 12:08:18;;;;;;;9.70;4.93;;;;;;;;;;4777695;29;20039;-72
2021/08/20 12:10:46;;;;;;;7.47;4.38;;;;;;;;;;4786286;29;20037;-72
2021/08/20 12:13:13;;;;;;;7.68;4.03;;;;;;;;;;4785822;29;20041;-71
2021/08/20 12:15:40;;;;;;;10.75;4.47;;;;;;;;;;4786797;29;20042;-75
2021/08/20 12:18:24;;;;;;;7.80;4.35;;;;;;;;;;4792142;29;20027;-72
2021/08/20 12:20:52;;;;;;;6.60;4.07;;;;;;;;;;4801250;29;20041;-72
2021/08/20 12:23:17;;;;;;;7.95;4.70;;;;;;;;;;4806137;29;20123;-72
2021/08/20 12:25:43;;;;;;;8.25;4.40;;;;;;;;;;4807745;29;20475;-72
2021/08/20 12:28:14;;;;;;;7.50;4.50;;;;;;;;;;4778862;29;20121;-72
2021/08/20 12:30:41;;;;;;;7.78;4.63;;;;;;;;;;4786909;29;20031;-72
2021/08/20 12:33:07;;;;;;;5.63;4.43;;;;;;;;;;4817121;29;20038;-72
2021/08/20 12:35:33;;;;;;;8.82;4.13;;;;;;;;;;4806547;29;20118;-72
2021/08/20 12:38:06;;;;;;;7.88;5.25;;;;;;;;;;4801050;29;20157;-73
2021/08/20 12:40:33;;;;;;;7.13;4.43;;;;;;;;;;4803500;29;20073;-72
2021/08/20 12:42:59;;;;;;;8.25;4.93;;;;;;;;;;4807085;29;20035;-71
2021/08/20 12:45:25;;;;;;;6.60;4.00;;;;;;;;;;4802263;29;20035;-75
2021/08/20 12:48:04;;;;;;;12.80;5.40;;;;;;;;;;4796525;29;20057;-72
2021/08/20 12:50:31;;;;;;;10.70;5.22;;;;;;;;;;4809256;29;20026;-73
2021/08/20 12:53:04;;;;;;;10.13;5.28;;;;;;;;;;4791236;29;20041;-74
2021/08/20 12:55:38;;;;;;;13.98;6.10;;;;;;;;;;4802393;29;20026;-73
2021/08/20 12:58:06;;;;;;;28.05;5.93;;;;;;;;;;4789209;29;20035;-74
2021/08/20 13:00:35;;;;;;;14.98;5.90;;;;;;;;;;4778515;30;20031;-71
2021/08/20 13:03:02;;;;;;;11.75;6.43;;;;;;;;;;4805333;29;20038;-72
2021/08/20 13:05:27;;;;;;;15.25;6.75;;;;;;;;;;4821770;29;20039;-72
2021/08/20 13:07:53;;;;;;;13.23;6.32;;;;;;;;;;4809592;29;20034;-72
2021/08/20 13:10:19;;;;;;;13.02;6.53;;;;;;;;;;4798180;29;20042;-72
2021/08/20 13:12:45;;;;;;;10.82;5.97;;;;;;;;;;4786794;29;20413;-72
2021/08/20 13:15:12;;;;;;;13.05;6.10;;;;;;;;;;4793532;29;20058;-73
2021/08/20 13:17:38;;;;;;;14.48;6.60;;;;;;;;;;4785056;29;20031;-75
2021/08/20 13:20:04;;;;;;;16.20;7.45;;;;;;;;;;4809686;29;20041;-73
2021/08/20 13:22:30;;;;;;;12.30;6.93;;;;;;;;;;4784639;29;20165;-73
2021/08/20 13:24:56;;;;;;;10.98;6.68;;;;;;;;;;4804133;29;20789;-72
2021/08/20 13:27:22;;;;;;;18.27;7.32;;;;;;;;;;4807424;29;20053;-73
2021/08/20 13:29:48;;;;;;;18.05;7.13;;;;;;;;;;4786339;29;20449;-73
2021/08/20 13:32:13;;;;;;;19.50;6.85;;;;;;;;;;4783487;29;20049;-72
2021/08/20 13:34:39;;;;;;;17.80;6.93;;;;;;;;;;4810069;29;20035;-73
2021/08/20 13:37:04;;;;;;;17.85;7.95;;;;;;;;;;4812136;29;20031;-73
2021/08/20 13:39:30;;;;;;;13.75;6.95;;;;;;;;;;4799210;29;20037;-71
2021/08/20 13:41:55;;;;;;;14.27;8.07;;;;;;;;;;4802012;29;20051;-72
2021/08/20 13:44:21;;;;;;;16.05;8.80;;;;;;;;;;4784834;29;20177;-71
2021/08/20 13:46:46;;;;;;;16.33;8.65;;;;;;;;;;4806935;29;20070;-73
2021/08/20 13:49:15;;;;;;;12.15;7.18;;;;;;;;;;4784406;29;20042;-71
2021/08/20 13:51:40;;;;;;;20.45;9.38;;;;;;;;;;4816177;29;20030;-73
2021/08/20 13:54:06;;;;;;;16.98;8.45;;;;;;;;;;4816166;29;20512;-72
2021/08/20 13:56:32;;;;;;;18.02;7.70;;;;;;;;;;4799594;29;20492;-71
2021/08/20 13:58:58;;;;;;;21.23;8.65;;;;;;;;;;4794280;29;20122;-73
2021/08/20 14:01:23;;;;;;;19.08;8.60;;;;;;;;;;4807516;29;20030;-73
2021/08/20 14:03:50;;;;;;;16.80;7.88;;;;;;;;;;4807508;29;20068;-73
2021/08/20 14:06:16;;;;;;;17.35;7.72;;;;;;;;;;4800095;29;20030;-72
2021/08/20 14:08:41;;;;;;;10.88;7.03;;;;;;;;;;4784072;29;20499;-72
2021/08/20 14:11:08;;;;;;;11.88;6.90;;;;;;;;;;4801103;29;20506;-72
2021/08/20 14:13:35;;;;;;;12.18;6.38;;;;;;;;;;4802674;29;20037;-72
2021/08/20 14:16:01;;;;;;;11.30;7.10;;;;;;;;;;4784574;29;20035;-73
2021/08/20 14:18:26;;;;;;;10.00;5.57;;;;;;;;;;4778917;29;20429;-74
2021/08/20 14:20:55;;;;;;;17.75;7.15;;;;;;;;;;4799770;29;20031;-73
2021/08/20 14:23:21;;;;;;;9.82;4.78;;;;;;;;;;4803894;29;20051;-73
2021/08/20 14:25:46;;;;;;;8.02;5.05;;;;;;;;;;4803281;29;20066;-73
2021/08/20 14:28:12;;;;;;;15.43;6.63;;;;;;;;;;4809535;29;20035;-73
2021/08/20 14:30:38;;;;;;;10.73;5.82;;;;;;;;;;4781194;29;20624;-71
2021/08/20 14:33:05;;;;;;;10.73;5.97;;;;;;;;;;4781626;29;20031;-73
2021/08/20 14:35:31;;;;;;;13.35;6.00;;;;;;;;;;4777039;29;20031;-71
2021/08/20 14:37:57;;;;;;;13.10;6.47;;;;;;;;;;4802416;29;20043;-73
2021/08/20 14:40:23;;;;;;;11.40;6.53;;;;;;;;;;4800407;29;20055;-71
2021/08/20 14:42:49;;;;;;;9.23;5.68;;;;;;;;;;4782586;30;20539;-72